This is the latest recevied weather packets stored in our database for station/object S54L-12. If no packets are shown the sender has not sent any weather packets the latest 10 day(s).
| Time | Temp. | Humidity | Pressure | Rain* | Wind** | Luminosity | Snow |
|---|---|---|---|---|---|---|---|
| 1777245181 | 7.78° C | 51% | 927.3 hPa | - | - | - | - |
| 1777244280 | 8.33° C | 50% | 927.3 hPa | - | - | - | - |
| 1777242480 | 8.89° C | 51% | 927.1 hPa | - | - | - | - |
| 1777241580 | 8.89° C | 51% | 926.9 hPa | - | - | - | - |
| 1777240680 | 9.44° C | 51% | 926.9 hPa | - | - | - | - |
| 1777239780 | 9.44° C | 52% | 926.8 hPa | - | - | - | - |
| 1777238879 | 10° C | 51% | 926.7 hPa | - | - | - | - |
| 1777237980 | 10° C | 51% | 926.8 hPa | - | - | - | - |
| 1777237080 | 10.56° C | 51% | 926.6 hPa | - | - | - | - |
| 1777236180 | 11.11° C | 52% | 926.5 hPa | - | - | - | - |
| 1777235280 | 11.67° C | 51% | 926.2 hPa | - | - | - | - |
| 1777234380 | 12.22° C | 49% | 926.1 hPa | - | - | - | - |
| 1777233480 | 12.78° C | 49% | 925.9 hPa | - | - | - | - |
| 1777232580 | 13.33° C | 47% | 925.6 hPa | - | - | - | - |
| 1777231680 | 14.44° C | 45% | 925.3 hPa | - | - | - | - |
| 1777230780 | 15° C | 43% | 925.1 hPa | - | - | - | - |
| 1777229880 | 15° C | 43% | 924.8 hPa | - | - | - | - |
| 1777228980 | 15° C | 43% | 924.6 hPa | - | - | - | - |
| 1777228080 | 15.56° C | 43% | 924.4 hPa | - | - | - | - |
| 1777227179 | 16.11° C | 42% | 924.1 hPa | - | - | - | - |
| 1777226279 | 16.67° C | 42% | 923.7 hPa | - | - | - | - |
| 1777225379 | 17.22° C | 43% | 923.4 hPa | - | - | - | - |
| 1777224479 | 18.33° C | 39% | 923.1 hPa | - | - | - | - |
| 1777223579 | 19.44° C | 38% | 922.9 hPa | - | - | - | - |
| 1777222679 | 20° C | 35% | 922.9 hPa | - | - | - | - |
* Rain since midnight (hover to see other rain measurements)
** Current wind speed in m/s (hover to see current wind gust speed)